Time;durP1;ratioP1;P1;durP2;ratioP2;P2;SDS_P1;SDS_P2;PMS_P1;PMS_P2;Temp;Humidity;BMP_temperature;BMP_pressure;BME280_temperature;BME280_humidity;BME280_pressure;Samples;Min_cycle;Max_cycle;Signal;HPM_P1;HPM_P2
2022/05/23 00:02:25;;;;;;;1.00;0.90;;;;;;;8.99;99.73;99705.84;1723069;82;20907;-42
2022/05/23 00:04:53;;;;;;;3.60;1.10;;;;;;;8.94;99.56;99709.81;1721874;82;21458;-42
2022/05/23 00:07:35;;;;;;;0.93;0.93;;;;;;;8.89;99.96;99710.36;1726143;82;21520;-42
2022/05/23 00:10:03;;;;;;;2.67;0.90;;;;;;;8.86;99.99;99713.85;1729837;82;21219;-42
2022/05/23 00:12:32;;;;;;;1.10;1.00;;;;;;;8.82;100.00;99721.69;1710595;83;21005;-42
2022/05/23 00:14:58;;;;;;;0.90;0.90;;;;;;;8.79;100.00;99720.05;1724708;82;21461;-42
2022/05/23 00:17:25;;;;;;;1.70;0.98;;;;;;;8.77;100.00;99721.81;1730237;82;21148;-42
2022/05/23 00:19:51;;;;;;;6.90;0.70;;;;;;;8.75;100.00;99724.88;1723472;82;21502;-42
2022/05/23 00:22:18;;;;;;;1.17;1.00;;;;;;;8.70;100.00;99723.68;1693661;83;21057;-42
2022/05/23 00:24:46;;;;;;;1.87;1.07;;;;;;;8.68;100.00;99728.03;1727786;82;20939;-42
2022/05/23 00:27:16;;;;;;;2.25;1.15;;;;;;;8.62;100.00;99730.75;1718446;82;20908;-42
2022/05/23 00:29:46;;;;;;;2.58;1.00;;;;;;;8.59;100.00;99728.23;1708596;83;20933;-42
2022/05/23 00:35:18;;;;;;;1.40;1.30;;;;;;;8.53;100.00;99733.08;1721232;82;21279;-42
2022/05/23 00:37:47;;;;;;;1.70;1.12;;;;;;;8.51;100.00;99733.56;1721115;82;21030;-42
2022/05/23 00:40:28;;;;;;;3.33;1.27;;;;;;;8.48;100.00;99730.56;1710531;83;21553;-41
2022/05/23 00:43:16;;;;;;;5.22;1.17;;;;;;;8.46;100.00;99727.59;1715672;83;20942;-42
2022/05/23 00:45:53;;;;;;;2.20;0.90;;;;;;;8.43;100.00;99730.23;1720519;82;20979;-42
2022/05/23 00:48:23;;;;;;;1.00;1.00;;;;;;;8.40;100.00;99732.46;1722954;82;21083;-42
2022/05/23 00:51:01;;;;;;;2.25;1.30;;;;;;;8.38;100.00;99726.48;1691989;83;21737;-42
2022/05/23 00:53:32;;;;;;;1.25;1.25;;;;;;;8.37;100.00;99736.40;1725508;82;21438;-42
2022/05/23 00:55:59;;;;;;;3.72;1.15;;;;;;;8.34;100.00;99739.88;1716088;83;20912;-42
2022/05/23 00:58:36;;;;;;;1.50;1.20;;;;;;;8.32;100.00;99733.91;1715906;83;21141;-42
2022/05/23 01:01:07;;;;;;;0.88;0.88;;;;;;;8.30;100.00;99738.67;1718356;82;22101;-42
2022/05/23 01:03:35;;;;;;;2.95;1.37;;;;;;;8.29;100.00;99738.27;1664406;83;21386;-43
2022/05/23 01:06:03;;;;;;;5.37;1.40;;;;;;;8.27;100.00;99738.31;1702640;83;21001;-42
2022/05/23 01:08:30;;;;;;;1.80;1.40;;;;;;;8.27;100.00;99743.89;1697271;83;20998;-42
2022/05/23 01:10:57;;;;;;;3.50;1.20;;;;;;;8.26;100.00;99747.36;1721918;82;20955;-43
2022/05/23 01:13:25;;;;;;;2.47;1.20;;;;;;;8.24;100.00;99746.12;1724777;82;21106;-43
2022/05/23 01:15:52;;;;;;;2.60;1.25;;;;;;;8.24;100.00;99749.13;1725281;82;21536;-42
2022/05/23 01:18:19;;;;;;;1.80;1.70;;;;;;;8.22;100.00;99744.02;1719477;82;20939;-42
2022/05/23 01:20:50;;;;;;;1.40;1.30;;;;;;;8.21;100.00;99746.18;1679171;83;21121;-42
2022/05/23 01:23:35;;;;;;;2.58;1.60;;;;;;;8.20;100.00;99747.03;1676390;83;20994;-42
2022/05/23 01:26:21;;;;;;;1.15;1.02;;;;;;;8.18;100.00;99739.34;1703210;83;21086;-42
2022/05/23 01:28:51;;;;;;;1.57;1.40;;;;;;;8.14;100.00;99758.34;1697048;84;20924;-42
2022/05/23 01:31:32;;;;;;;2.12;1.82;;;;;;;8.12;100.00;99754.08;1671349;82;21489;-42
2022/05/23 01:34:01;;;;;;;2.45;1.62;;;;;;;8.09;100.00;99751.56;1695341;83;20987;-41
2022/05/23 01:36:27;;;;;;;4.67;1.85;;;;;;;8.05;100.00;99752.91;1693698;83;21486;-42
2022/05/23 01:38:54;;;;;;;2.17;1.70;;;;;;;8.00;100.00;99745.72;1720652;82;21092;-41
2022/05/23 01:41:23;;;;;;;3.92;1.80;;;;;;;7.96;100.00;99746.66;1714426;83;21022;-42
2022/05/23 01:43:53;;;;;;;7.53;2.12;;;;;;;7.89;100.00;99743.34;1724230;82;21101;-42
2022/05/23 01:46:25;;;;;;;3.90;1.70;;;;;;;7.82;100.00;99748.63;1713773;83;21514;-42
2022/05/23 01:49:10;;;;;;;1.72;1.62;;;;;;;7.73;100.00;99749.64;1725161;82;21090;-42
2022/05/23 01:51:37;;;;;;;1.90;1.80;;;;;;;7.64;100.00;99749.81;1721146;82;21079;-42
2022/05/23 01:54:04;;;;;;;5.20;1.52;;;;;;;7.56;100.00;99753.34;1729274;82;20994;-42
2022/05/23 01:56:32;;;;;;;2.58;2.35;;;;;;;7.49;100.00;99760.78;1724431;82;20891;-42
2022/05/23 02:01:48;;;;;;;3.20;1.60;;;;;;;7.35;100.00;99768.73;1714731;83;20967;-43
2022/05/23 02:04:22;;;;;;;2.10;1.90;;;;;;;7.28;100.00;99771.83;1724950;82;21173;-43
2022/05/23 02:06:50;;;;;;;2.05;1.95;;;;;;;7.23;100.00;99776.21;1716472;82;21069;-43
2022/05/23 02:09:27;;;;;;;3.37;2.00;;;;;;;7.16;100.00;99771.58;1722513;83;20995;-43
2022/05/23 02:11:59;;;;;;;3.65;2.30;;;;;;;7.11;100.00;99773.84;1728202;82;21488;-43
2022/05/23 02:14:27;;;;;;;2.20;1.82;;;;;;;7.07;100.00;99775.59;1723360;82;21058;-43
2022/05/23 02:16:55;;;;;;;2.58;1.85;;;;;;;7.02;100.00;99781.25;1715035;82;21262;-43
2022/05/23 02:19:24;;;;;;;3.98;2.55;;;;;;;6.99;100.00;99783.42;1693612;83;20940;-43
2022/05/23 02:21:52;;;;;;;4.78;1.95;;;;;;;6.97;100.00;99793.34;1727440;82;21052;-43
2022/05/23 02:24:20;;;;;;;2.62;1.70;;;;;;;6.96;100.00;99795.50;1731494;82;20993;-43
2022/05/23 02:26:47;;;;;;;2.15;1.85;;;;;;;6.93;100.00;99799.38;1694443;83;20947;-43
2022/05/23 02:29:18;;;;;;;2.27;2.17;;;;;;;6.90;100.00;99799.84;1718344;83;21280;-43
2022/05/23 02:31:48;;;;;;;3.60;1.95;;;;;;;6.91;100.00;99801.98;1717723;83;20942;-43
2022/05/23 02:34:14;;;;;;;3.10;1.90;;;;;;;6.90;100.00;99803.70;1728775;82;21611;-41
2022/05/23 02:36:46;;;;;;;5.45;1.92;;;;;;;6.90;100.00;99807.55;1724853;82;20990;-41
2022/05/23 02:39:13;;;;;;;6.08;2.17;;;;;;;6.93;100.00;99805.81;1728680;82;20986;-41
2022/05/23 02:41:41;;;;;;;3.02;1.80;;;;;;;6.94;100.00;99808.38;1728740;82;21507;-41
2022/05/23 02:44:08;;;;;;;2.77;1.90;;;;;;;6.97;100.00;99810.07;1678288;83;20975;-41
2022/05/23 02:46:36;;;;;;;2.95;2.22;;;;;;;6.98;100.00;99805.34;1718048;83;20879;-41
2022/05/23 02:49:06;;;;;;;3.72;2.08;;;;;;;6.99;100.00;99807.03;1714440;83;21094;-41
2022/05/23 02:51:33;;;;;;;2.10;1.90;;;;;;;7.02;100.00;99821.14;1713427;83;21023;-41
2022/05/23 02:54:02;;;;;;;1.62;1.52;;;;;;;7.06;100.00;99820.22;1728582;82;22158;-41
2022/05/23 02:56:31;;;;;;;2.40;1.90;;;;;;;7.12;100.00;99820.58;1723359;82;21010;-41
2022/05/23 02:59:00;;;;;;;5.62;2.30;;;;;;;7.19;100.00;99819.61;1723604;82;20982;-41
2022/05/23 03:01:27;;;;;;;6.12;1.90;;;;;;;7.27;100.00;99822.91;1719925;82;20923;-41
2022/05/23 03:03:55;;;;;;;4.85;1.98;;;;;;;7.35;100.00;99820.23;1728894;82;20844;-41
2022/05/23 03:06:23;;;;;;;2.05;1.87;;;;;;;7.47;100.00;99821.34;1720888;82;21092;-41
2022/05/23 03:08:49;;;;;;;2.37;2.08;;;;;;;7.59;100.00;99820.72;1716087;83;21043;-41
2022/05/23 03:11:16;;;;;;;2.33;2.10;;;;;;;7.71;100.00;99821.82;1708752;83;21040;-41
2022/05/23 03:13:44;;;;;;;3.02;1.95;;;;;;;7.85;100.00;99827.16;1720523;82;21557;-41
2022/05/23 03:16:12;;;;;;;1.85;1.75;;;;;;;7.95;100.00;99839.00;1717363;82;20943;-41
2022/05/23 03:18:41;;;;;;;1.90;1.80;;;;;;;8.08;100.00;99840.09;1724051;82;21287;-42
2022/05/23 03:21:11;;;;;;;2.00;1.80;;;;;;;8.26;100.00;99846.20;1723466;82;20947;-41
2022/05/23 03:29:12;;;;;;;2.45;2.25;;;;;;;8.76;100.00;99858.18;1678497;83;20941;-41
2022/05/23 03:31:40;;;;;;;3.75;2.08;;;;;;;8.88;100.00;99851.45;1729176;82;21161;-41
2022/05/23 03:34:09;;;;;;;1.82;1.72;;;;;;;8.99;100.00;99855.11;1729011;82;22471;-42
2022/05/23 03:36:36;;;;;;;4.85;1.77;;;;;;;9.10;100.00;99858.75;1729054;82;20998;-41
2022/05/23 03:39:04;;;;;;;1.70;1.60;;;;;;;9.18;100.00;99865.04;1720372;82;21565;-42
2022/05/23 03:41:31;;;;;;;4.72;1.80;;;;;;;9.27;100.00;99862.70;1729158;82;20946;-41
2022/05/23 03:43:58;;;;;;;8.80;1.70;;;;;;;9.32;100.00;99862.15;1721845;82;21152;-41
2022/05/23 03:46:24;;;;;;;6.37;1.87;;;;;;;9.40;99.15;99861.52;1719330;82;20903;-41
2022/05/23 03:48:51;;;;;;;2.62;1.75;;;;;;;9.44;98.49;99861.02;1727832;82;20950;-42
2022/05/23 03:51:18;;;;;;;3.02;1.72;;;;;;;9.48;97.85;99858.77;1717880;82;21006;-42
2022/05/23 03:53:44;;;;;;;1.80;1.70;;;;;;;9.52;97.16;99852.63;1714569;83;21525;-41
2022/05/23 03:56:11;;;;;;;1.80;1.52;;;;;;;9.58;97.06;99856.82;1722163;82;21136;-42
2022/05/23 03:58:41;;;;;;;2.70;1.50;;;;;;;9.66;96.75;99863.10;1719745;82;21658;-42
2022/05/23 04:01:30;;;;;;;2.22;2.08;;;;;;;9.73;96.01;99864.21;1717763;82;20943;-41
2022/05/23 04:03:59;;;;;;;2.10;2.00;;;;;;;9.76;94.68;99872.31;1703807;82;20965;-42
2022/05/23 04:06:28;;;;;;;9.10;2.20;;;;;;;9.75;93.89;99877.95;1723260;82;20946;-41
2022/05/23 04:08:56;;;;;;;4.10;2.47;;;;;;;9.74;93.11;99878.83;1721719;82;21158;-41
2022/05/23 04:11:24;;;;;;;1.75;1.65;;;;;;;9.77;93.15;99877.89;1722404;82;20986;-41
2022/05/23 04:13:50;;;;;;;9.78;2.00;;;;;;;9.83;92.80;99884.66;1730011;82;21469;-42
2022/05/23 04:16:18;;;;;;;4.58;1.70;;;;;;;9.89;92.67;99880.63;1721204;82;20929;-41
2022/05/23 04:18:46;;;;;;;2.20;1.70;;;;;;;9.94;92.37;99874.88;1720189;83;20926;-42
2022/05/23 04:21:14;;;;;;;2.35;1.70;;;;;;;10.00;92.27;99883.80;1725192;82;21065;-41
2022/05/23 04:23:42;;;;;;;2.25;1.50;;;;;;;10.03;91.84;99881.56;1724465;82;21033;-42
2022/05/23 04:26:11;;;;;;;3.83;1.62;;;;;;;10.06;90.79;99882.34;1724981;82;20961;-41
2022/05/23 04:28:39;;;;;;;4.70;1.75;;;;;;;10.05;90.72;99884.53;1726322;82;20990;-42
2022/05/23 04:31:09;;;;;;;5.05;2.00;;;;;;;10.10;90.73;99883.56;1728602;82;20923;-41
2022/05/23 04:36:24;;;;;;;3.72;1.90;;;;;;;10.20;90.27;99888.89;1725677;82;20954;-41
2022/05/23 04:38:51;;;;;;;2.08;1.27;;;;;;;10.19;89.79;99888.05;1731036;82;21025;-42
2022/05/23 04:41:17;;;;;;;1.72;1.62;;;;;;;10.14;89.42;99879.58;1727196;82;20893;-42
2022/05/23 04:43:46;;;;;;;5.22;1.52;;;;;;;10.18;89.73;99881.61;1723835;82;21013;-42
2022/05/23 04:46:14;;;;;;;3.92;1.62;;;;;;;10.19;89.45;99880.30;1726165;82;21154;-41
2022/05/23 04:51:32;;;;;;;4.12;1.42;;;;;;;10.31;88.61;99878.27;1723285;82;21013;-41
2022/05/23 04:53:59;;;;;;;1.55;1.45;;;;;;;10.30;88.21;99887.78;1717161;82;20962;-41
2022/05/23 04:56:27;;;;;;;4.85;1.72;;;;;;;10.32;88.41;99898.93;1699672;83;20922;-42
2022/05/23 04:58:56;;;;;;;5.30;1.50;;;;;;;10.39;88.42;99893.59;1722607;82;21231;-41
2022/05/23 05:01:23;;;;;;;6.40;1.60;;;;;;;10.45;88.01;99893.45;1724831;82;20946;-42
2022/05/23 05:03:57;;;;;;;2.98;1.37;;;;;;;10.49;87.43;99893.33;1720378;83;20900;-41
2022/05/23 05:06:25;;;;;;;1.70;1.60;;;;;;;10.48;87.59;99885.17;1727830;82;21575;-41
2022/05/23 05:08:52;;;;;;;4.10;1.75;;;;;;;10.57;88.08;99884.50;1727577;82;20982;-41
2022/05/23 05:11:20;;;;;;;1.95;1.55;;;;;;;10.62;87.79;99887.37;1724619;82;21771;-42
2022/05/23 05:13:49;;;;;;;1.47;1.32;;;;;;;10.69;87.55;99891.08;1721535;82;20887;-41
2022/05/23 05:16:19;;;;;;;3.12;1.27;;;;;;;10.74;87.02;99894.41;1716816;82;20875;-42
2022/05/23 05:18:44;;;;;;;4.15;2.10;;;;;;;10.81;86.77;99893.34;1728909;82;20994;-43
2022/05/23 05:21:21;;;;;;;4.40;1.42;;;;;;;10.92;86.05;99898.22;1720115;82;20982;-42
2022/05/23 05:23:59;;;;;;;2.10;1.47;;;;;;;10.99;85.87;99898.86;1634756;86;21124;-42
2022/05/23 05:26:29;;;;;;;4.72;1.90;;;;;;;11.03;85.89;99897.91;1695218;84;20941;-42
2022/05/23 05:30:58;;;;;;;2.65;1.50;;;;;;;11.16;85.61;99904.41;1798344;79;22629;-41
2022/05/23 05:33:31;;;;;;;1.77;1.27;;;;;;;11.19;85.51;99900.42;1757978;81;21557;-42
2022/05/23 05:36:02;;;;;;;1.47;1.27;;;;;;;11.29;85.41;99903.59;1757986;81;21823;-43
2022/05/23 05:38:57;;;;;;;1.75;1.12;;;;;;;11.34;85.47;99904.30;1757635;81;20901;-43
2022/05/23 05:41:27;;;;;;;2.33;1.40;;;;;;;11.45;84.87;99907.86;1758122;81;20885;-43
2022/05/23 05:44:02;;;;;;;3.72;1.90;;;;;;;11.57;83.96;99908.39;1758086;81;20889;-43
2022/05/23 05:46:37;;;;;;;2.15;1.52;;;;;;;11.60;83.62;99903.10;1755837;81;20884;-43
2022/05/23 05:49:21;;;;;;;1.67;1.42;;;;;;;11.69;82.91;99906.69;1748378;82;21067;-43
2022/05/23 05:51:49;;;;;;;4.40;1.37;;;;;;;11.84;83.17;99901.45;1749598;81;20940;-41
2022/05/23 05:54:21;;;;;;;1.50;1.40;;;;;;;11.95;82.52;99901.58;1716019;83;20939;-41
2022/05/23 05:56:52;;;;;;;2.58;1.27;;;;;;;11.95;82.39;99903.70;1708638;84;21050;-42
2022/05/23 05:59:20;;;;;;;1.20;1.10;;;;;;;11.94;82.10;99900.71;1709242;84;20959;-42
2022/05/23 06:01:46;;;;;;;3.50;1.40;;;;;;;11.93;81.95;99903.77;1680907;84;21092;-42
2022/05/23 06:04:14;;;;;;;2.22;1.52;;;;;;;11.94;81.87;99905.89;1709119;84;21011;-42
2022/05/23 06:12:17;;;;;;;2.12;1.35;;;;;;;12.07;80.60;99905.94;1709424;84;20924;-43
2022/05/23 06:14:45;;;;;;;4.55;1.25;;;;;;;12.16;80.13;99911.27;1709109;84;21098;-43
2022/05/23 06:17:11;;;;;;;3.45;1.20;;;;;;;12.26;79.98;99910.52;1709293;84;21015;-43
2022/05/23 06:19:43;;;;;;;10.48;1.55;;;;;;;12.40;79.85;99908.73;1709070;82;20960;-43
2022/05/23 06:22:18;;;;;;;4.45;1.72;;;;;;;12.40;77.08;99907.88;1708377;84;21521;-43
2022/05/23 06:24:52;;;;;;;4.00;1.52;;;;;;;12.48;77.79;99909.74;1708131;83;21474;-42
2022/05/23 06:27:19;;;;;;;3.05;1.10;;;;;;;12.68;77.21;99906.90;1709087;84;21153;-42
2022/05/23 06:29:48;;;;;;;2.85;1.30;;;;;;;12.84;77.26;99904.16;1703498;83;20968;-42
2022/05/23 06:32:20;;;;;;;2.52;1.60;;;;;;;12.88;76.60;99899.23;1694683;84;21007;-42
2022/05/23 06:34:47;;;;;;;1.60;1.50;;;;;;;12.89;76.52;99903.52;1696430;84;21004;-42
2022/05/23 06:37:14;;;;;;;1.82;1.57;;;;;;;12.92;75.92;99902.11;1696464;84;20900;-42
2022/05/23 06:39:41;;;;;;;6.12;1.67;;;;;;;13.06;76.35;99904.66;1696550;84;21223;-42
2022/05/23 06:42:26;;;;;;;6.50;1.90;;;;;;;13.18;75.65;99898.98;1695946;84;20952;-43
2022/05/23 06:44:59;;;;;;;1.55;1.35;;;;;;;13.24;73.82;99899.21;1673764;84;20944;-43
2022/05/23 06:47:45;;;;;;;1.77;1.67;;;;;;;13.25;74.32;99905.23;1695943;84;21484;-43
2022/05/23 06:50:31;;;;;;;8.00;1.72;;;;;;;13.38;74.30;99905.17;1692730;84;20952;-41
2022/05/23 06:53:05;;;;;;;2.12;1.30;;;;;;;13.54;73.68;99902.02;1694648;84;22474;-42
2022/05/23 06:55:34;;;;;;;3.72;1.45;;;;;;;13.60;73.26;99909.56;1695394;84;20976;-42
2022/05/23 06:58:01;;;;;;;1.32;1.22;;;;;;;13.54;73.11;99907.22;1696061;84;21498;-42
2022/05/23 07:00:28;;;;;;;4.08;1.40;;;;;;;13.49;72.67;99909.98;1695910;84;21062;-43
2022/05/23 07:02:59;;;;;;;4.42;1.30;;;;;;;13.47;72.65;99915.23;1694626;84;20964;-43
2022/05/23 07:13:49;;;;;;;3.17;1.30;;;;;;;13.30;74.15;99913.27;1695057;84;20932;-42
2022/05/23 07:16:17;;;;;;;5.97;1.47;;;;;;;13.28;74.46;99912.95;1696004;84;21047;-42
2022/05/23 07:18:45;;;;;;;1.52;1.42;;;;;;;13.24;73.84;99917.41;1695815;84;21873;-42
2022/05/23 07:21:19;;;;;;;3.77;1.37;;;;;;;13.20;73.83;99919.73;1694532;84;21036;-42
2022/05/23 07:23:48;;;;;;;2.05;1.30;;;;;;;13.14;73.93;99923.86;1693471;84;21530;-43
2022/05/23 07:26:17;;;;;;;6.67;1.82;;;;;;;13.14;74.46;99928.59;1693077;83;21530;-42
2022/05/23 07:28:47;;;;;;;2.58;1.82;;;;;;;13.17;74.02;99931.55;1694709;84;20905;-43
2022/05/23 07:31:14;;;;;;;7.30;2.20;;;;;;;13.18;73.94;99932.77;1695833;83;21045;-43
2022/05/23 07:33:41;;;;;;;2.35;2.15;;;;;;;13.22;74.11;99934.34;1666562;84;21526;-43
2022/05/23 07:36:10;;;;;;;8.80;2.25;;;;;;;13.23;73.56;99935.20;1694796;84;20925;-43
2022/05/23 07:38:38;;;;;;;2.83;2.60;;;;;;;13.30;74.09;99935.83;1695834;84;21521;-42
2022/05/23 07:41:07;;;;;;;9.83;2.47;;;;;;;13.40;73.74;99928.05;1696253;84;20999;-43
2022/05/23 07:43:39;;;;;;;4.47;3.12;;;;;;;13.55;74.31;99933.61;1695774;84;21079;-43
2022/05/23 07:46:13;;;;;;;8.95;3.42;;;;;;;13.73;72.86;99943.73;1695887;84;20956;-43
2022/05/23 07:48:45;;;;;;;10.13;3.27;;;;;;;13.86;72.06;99933.69;1695702;84;20956;-43
2022/05/23 07:51:14;;;;;;;12.63;3.17;;;;;;;13.95;72.06;99935.91;1695733;83;21541;-43
2022/05/23 08:02:00;;;;;;;8.23;3.22;;;;;;;14.69;67.93;99931.95;1695687;84;20965;-42
2022/05/23 08:04:28;;;;;;;3.65;2.92;;;;;;;14.83;68.37;99935.28;1695804;84;20941;-42
2022/05/23 08:06:57;;;;;;;7.65;2.40;;;;;;;14.93;68.48;99933.12;1695573;84;20983;-43
2022/05/23 08:09:25;;;;;;;5.25;2.87;;;;;;;15.13;67.91;99930.04;1695844;84;21856;-42
2022/05/23 08:11:57;;;;;;;3.67;1.40;;;;;;;15.29;68.61;99932.81;1695020;84;21699;-43
2022/05/23 08:14:24;;;;;;;3.62;1.90;;;;;;;15.47;65.35;99931.92;1695950;84;21451;-42
2022/05/23 08:16:53;;;;;;;11.22;1.30;;;;;;;15.55;63.07;99934.66;1695677;84;21004;-43
2022/05/23 08:19:22;;;;;;;3.60;1.42;;;;;;;15.48;60.38;99934.92;1694221;84;20999;-43
2022/05/23 08:21:54;;;;;;;1.95;1.25;;;;;;;15.33;60.07;99935.66;1695909;83;21165;-42
2022/05/23 08:24:22;;;;;;;1.95;0.90;;;;;;;15.17;60.86;99937.66;1695834;83;20940;-42
2022/05/23 08:26:49;;;;;;;2.02;1.10;;;;;;;15.17;59.92;99938.96;1695846;83;20976;-43
2022/05/23 08:29:16;;;;;;;1.27;0.82;;;;;;;15.25;58.71;99931.23;1695900;84;21235;-42
2022/05/23 08:31:44;;;;;;;2.02;0.75;;;;;;;15.31;57.57;99927.06;1692460;84;20944;-42
2022/05/23 08:34:16;;;;;;;1.70;0.95;;;;;;;15.42;57.18;99925.27;1674406;85;21948;-43
2022/05/23 08:36:43;;;;;;;2.33;0.78;;;;;;;15.68;56.59;99928.39;1693292;84;21011;-43
2022/05/23 08:39:10;;;;;;;3.05;1.00;;;;;;;15.86;55.62;99930.56;1677632;85;21024;-43
2022/05/23 08:41:44;;;;;;;1.25;1.15;;;;;;;15.84;55.86;99930.63;1694942;84;20968;-43
2022/05/23 08:44:52;;;;;;;1.15;1.00;;;;;;;15.85;56.96;99928.88;1693253;84;21011;-43
2022/05/23 08:47:45;;;;;;;5.00;0.95;;;;;;;15.98;57.49;99926.53;1702927;84;21193;-43
2022/05/23 08:50:18;;;;;;;8.08;1.15;;;;;;;15.96;53.95;99920.08;1693422;84;21007;-43
2022/05/23 08:52:58;;;;;;;11.08;1.72;;;;;;;15.77;52.77;99924.02;1702943;84;20982;-43
2022/05/23 08:55:40;;;;;;;1.20;1.20;;;;;;;15.59;54.25;99928.37;1669428;85;21008;-43
2022/05/23 08:58:42;;;;;;;5.85;1.52;;;;;;;15.45;54.65;99925.94;1740972;82;21407;-43
2022/05/23 09:01:16;;;;;;;3.22;1.77;;;;;;;15.42;56.46;99930.48;1740438;82;21250;-43
2022/05/23 09:03:48;;;;;;;1.85;1.35;;;;;;;15.34;55.87;99933.44;1741012;82;20968;-43
2022/05/23 09:06:28;;;;;;;2.10;1.30;;;;;;;15.07;56.88;99934.63;1740776;82;20989;-43
2022/05/23 09:09:04;;;;;;;4.42;1.30;;;;;;;14.91;57.50;99933.17;1739888;82;20929;-42
2022/05/23 09:11:41;;;;;;;4.90;1.75;;;;;;;14.82;58.55;99936.64;1740781;82;21420;-43
2022/05/23 09:14:12;;;;;;;3.30;1.35;;;;;;;14.81;59.43;99941.02;1715727;82;20940;-43
2022/05/23 09:16:49;;;;;;;4.40;0.95;;;;;;;14.80;59.05;99943.23;1740701;82;21027;-43
2022/05/23 09:19:42;;;;;;;3.33;0.90;;;;;;;14.59;57.43;99947.58;1740762;82;20980;-43
2022/05/23 09:22:13;;;;;;;3.22;0.85;;;;;;;14.43;58.96;99952.60;1740971;82;20933;-43
2022/05/23 09:24:56;;;;;;;6.60;1.07;;;;;;;14.32;58.74;99950.45;1741009;82;20941;-43
2022/05/23 09:27:36;;;;;;;2.35;1.10;;;;;;;14.18;59.55;99949.73;1740734;82;21213;-43
2022/05/23 09:30:09;;;;;;;1.72;1.00;;;;;;;14.06;59.48;99945.88;1741950;81;21545;-43
2022/05/23 09:32:48;;;;;;;0.95;0.95;;;;;;;13.97;59.69;99944.48;1749894;81;20916;-42
2022/05/23 09:35:18;;;;;;;1.95;1.20;;;;;;;13.91;60.73;99949.95;1749812;81;21458;-43
2022/05/23 09:38:20;;;;;;;4.42;1.00;;;;;;;13.86;60.39;99951.89;1749797;82;20924;-43
2022/05/23 09:40:49;;;;;;;0.90;0.90;;;;;;;13.74;61.98;99946.25;1748251;82;21174;-43
2022/05/23 09:49:12;;;;;;;1.15;1.00;;;;;;;13.70;63.86;99945.16;1749860;82;20979;-43
2022/05/23 09:51:49;;;;;;;8.83;1.00;;;;;;;13.74;65.32;99950.63;1749872;82;20932;-43
2022/05/23 09:54:40;;;;;;;6.47;0.90;;;;;;;13.84;65.26;99952.41;1733098;82;21193;-43
2022/05/23 09:57:26;;;;;;;2.35;0.85;;;;;;;13.91;63.51;99949.95;1749966;82;20960;-43
2022/05/23 10:00:00;;;;;;;2.12;1.00;;;;;;;13.93;64.20;99950.73;1749797;82;20968;-43
2022/05/23 10:02:55;;;;;;;3.37;0.80;;;;;;;13.99;63.42;99953.55;1749301;82;20912;-43
2022/05/23 10:05:26;;;;;;;5.30;1.00;;;;;;;14.02;62.52;99951.67;1749301;82;21020;-43
2022/05/23 10:07:56;;;;;;;0.95;0.82;;;;;;;14.06;63.44;99954.98;1749754;82;21562;-43
2022/05/23 10:10:25;;;;;;;2.37;1.20;;;;;;;14.11;63.16;99953.03;1749692;82;20950;-42
2022/05/23 10:13:28;;;;;;;6.17;0.93;;;;;;;14.12;63.56;99959.09;1723418;82;20971;-43
2022/05/23 10:16:13;;;;;;;5.20;0.85;;;;;;;14.06;62.67;99958.44;1749786;82;20960;-43
2022/05/23 10:18:54;;;;;;;1.82;1.35;;;;;;;13.94;64.01;99963.69;1722153;82;20937;-43
2022/05/23 10:21:39;;;;;;;1.35;0.98;;;;;;;13.96;61.54;99961.48;1749633;82;21144;-43
2022/05/23 10:24:18;;;;;;;1.77;1.02;;;;;;;13.92;59.98;99966.81;1749885;82;20956;-43
2022/05/23 10:26:51;;;;;;;4.28;0.85;;;;;;;13.81;59.09;99965.55;1749970;81;20853;-43
2022/05/23 10:29:43;;;;;;;4.53;0.90;;;;;;;13.66;59.47;99960.03;1749972;82;21020;-43
2022/05/23 10:32:13;;;;;;;0.85;0.70;;;;;;;13.57;60.02;99959.09;1749972;82;21558;-43
2022/05/23 10:34:53;;;;;;;3.20;1.12;;;;;;;13.48;59.77;99964.19;1749910;82;20948;-43
2022/05/23 10:37:24;;;;;;;6.30;1.30;;;;;;;13.39;61.78;99960.16;1750107;82;20877;-42
2022/05/23 10:43:02;;;;;;;3.45;1.10;;;;;;;13.34;62.36;99961.62;1749992;82;21089;-43
2022/05/23 10:45:36;;;;;;;4.92;1.07;;;;;;;13.40;62.57;99962.31;1749694;82;20897;-43
2022/05/23 10:48:26;;;;;;;5.15;1.20;;;;;;;13.49;62.38;99962.81;1749979;81;21301;-43
2022/05/23 10:51:14;;;;;;;2.10;1.07;;;;;;;13.62;61.58;99959.29;1749883;81;20943;-43
2022/05/23 10:54:03;;;;;;;3.15;1.67;;;;;;;13.82;60.56;99962.86;1742206;82;21415;-43
2022/05/23 10:56:57;;;;;;;1.57;0.80;;;;;;;14.00;60.84;99966.48;1697909;82;20978;-42
2022/05/23 11:00:11;;;;;;;3.27;1.35;;;;;;;14.25;59.98;99967.24;1750036;82;20873;-43
2022/05/23 11:02:55;;;;;;;1.75;1.07;;;;;;;14.45;59.07;99965.95;1749723;81;21237;-43
2022/05/23 11:05:32;;;;;;;2.22;1.00;;;;;;;14.68;59.17;99971.95;1749611;81;20845;-43
2022/05/23 11:08:32;;;;;;;4.40;1.00;;;;;;;14.91;58.59;99966.22;1746436;82;20948;-43
2022/05/23 11:11:27;;;;;;;5.03;0.95;;;;;;;15.16;58.33;99965.12;1749572;82;20925;-43
2022/05/23 11:14:10;;;;;;;2.50;1.10;;;;;;;15.35;56.93;99968.55;1749014;82;21439;-43
2022/05/23 11:17:17;;;;;;;3.02;1.22;;;;;;;15.59;57.96;99963.58;1749883;81;21794;-43
2022/05/23 11:20:20;;;;;;;6.37;1.10;;;;;;;15.82;55.71;99961.64;1748706;82;20976;-43
2022/05/23 11:22:53;;;;;;;1.55;1.20;;;;;;;16.21;55.62;99956.70;1749957;82;21438;-43
2022/05/23 11:25:34;;;;;;;1.47;1.10;;;;;;;17.02;55.22;99955.23;1749871;82;20988;-43
2022/05/23 11:34:22;;;;;;;4.03;0.95;;;;;;;17.74;49.88;99949.13;1749794;82;20901;-43
2022/05/23 11:36:57;;;;;;;1.95;1.00;;;;;;;17.59;50.86;99950.83;1749690;82;20941;-43
2022/05/23 11:39:45;;;;;;;6.70;1.50;;;;;;;17.34;50.24;99952.66;1750054;82;20932;-44
2022/05/23 11:42:44;;;;;;;1.32;0.95;;;;;;;16.94;52.32;99961.69;1749938;81;20924;-43
2022/05/23 11:48:41;;;;;;;3.17;1.27;;;;;;;16.11;53.35;99949.79;1749798;81;20999;-43
2022/05/23 11:51:22;;;;;;;3.42;1.02;;;;;;;15.80;55.34;99952.12;1749927;82;20956;-44
2022/05/23 11:54:10;;;;;;;2.52;1.25;;;;;;;15.61;56.85;99952.61;1749901;81;21443;-44
2022/05/23 11:57:05;;;;;;;3.98;2.05;;;;;;;15.47;57.52;99951.48;1749736;82;20932;-44
2022/05/23 11:59:37;;;;;;;2.58;1.30;;;;;;;15.38;58.26;99955.84;1749845;82;21106;-44
2022/05/23 12:02:14;;;;;;;3.65;1.70;;;;;;;15.31;59.12;99958.35;1749847;82;20924;-44
2022/05/23 12:04:55;;;;;;;2.33;1.17;;;;;;;15.30;58.84;99951.45;1749807;82;20967;-44
2022/05/23 12:07:46;;;;;;;3.08;1.20;;;;;;;15.34;59.45;99953.82;1749623;82;21022;-43
2022/05/23 12:10:29;;;;;;;4.80;1.37;;;;;;;15.36;59.18;99949.86;1749934;82;20956;-44
2022/05/23 12:13:00;;;;;;;5.50;1.20;;;;;;;15.32;59.76;99950.44;1750155;82;21411;-43
2022/05/23 12:15:49;;;;;;;5.95;1.50;;;;;;;15.38;60.11;99947.54;1722460;82;20873;-44
2022/05/23 12:18:29;;;;;;;6.75;1.47;;;;;;;15.39;59.17;99949.70;1722489;82;21039;-43
2022/05/23 12:21:03;;;;;;;5.65;1.47;;;;;;;15.38;60.48;99946.72;1749967;80;20940;-43
2022/05/23 12:23:39;;;;;;;2.90;1.25;;;;;;;15.54;60.20;99947.31;1749946;82;20972;-43
2022/05/23 12:26:14;;;;;;;3.17;1.50;;;;;;;15.68;60.58;99952.70;1749725;82;21005;-42
2022/05/23 12:28:55;;;;;;;4.62;1.52;;;;;;;15.75;59.95;99954.09;1749850;81;20964;-43
2022/05/23 12:31:25;;;;;;;1.80;1.27;;;;;;;15.90;60.24;99947.31;1748210;81;20924;-43
2022/05/23 12:34:07;;;;;;;4.85;1.30;;;;;;;16.11;59.49;99952.88;1749722;81;21391;-42
2022/05/23 12:36:40;;;;;;;11.45;1.20;;;;;;;16.30;56.48;99949.73;1748222;80;20877;-42
2022/05/23 12:39:42;;;;;;;1.65;1.12;;;;;;;16.35;56.33;99952.95;1748979;82;21454;-43
2022/05/23 12:42:31;;;;;;;2.65;1.42;;;;;;;16.44;55.09;99953.40;1694873;84;20940;-43
2022/05/23 12:45:28;;;;;;;2.30;1.20;;;;;;;16.66;55.80;99955.30;1741794;82;20995;-43
2022/05/23 12:48:33;;;;;;;1.40;1.10;;;;;;;17.30;55.33;99955.05;1750123;82;21510;-43
2022/05/23 12:51:37;;;;;;;5.25;1.47;;;;;;;17.80;51.99;99952.69;1729736;82;21462;-43
2022/05/23 12:54:25;;;;;;;9.83;1.32;;;;;;;18.08;50.01;99959.47;1727382;82;21904;-43
2022/05/23 12:57:26;;;;;;;3.35;1.37;;;;;;;18.21;49.59;99964.39;1734836;82;21007;-43
2022/05/23 13:00:03;;;;;;;2.58;1.30;;;;;;;17.98;50.49;99964.84;1750083;82;21486;-43
2022/05/23 13:03:07;;;;;;;2.17;1.45;;;;;;;17.71;51.39;99962.86;1749899;82;21027;-43
2022/05/23 13:05:38;;;;;;;4.22;1.37;;;;;;;17.49;52.92;99953.11;1749428;82;20889;-43
2022/05/23 13:08:19;;;;;;;6.47;1.50;;;;;;;17.44;52.77;99951.70;1749834;82;21097;-43